createdAt,value
2019-04-10T00:00:47.855Z,16.90
2019-04-10T00:02:21.635Z,16.50
2019-04-10T00:03:54.533Z,15.90
2019-04-10T00:05:27.744Z,15.10
2019-04-10T00:07:09.483Z,16.17
2019-04-10T00:08:34.546Z,14.03
2019-04-10T00:10:07.732Z,14.70
2019-04-10T00:11:40.965Z,15.03
2019-04-10T00:13:14.192Z,13.63
2019-04-10T00:14:46.751Z,14.17
2019-04-10T00:16:20.902Z,14.87
2019-04-10T00:17:53.614Z,14.53
2019-04-10T00:19:26.702Z,14.63
2019-04-10T00:20:59.481Z,13.83
2019-04-10T00:22:31.827Z,14.13
2019-04-10T00:24:04.186Z,13.20
2019-04-10T00:25:37.118Z,14.07
2019-04-10T00:27:10.397Z,12.50
2019-04-10T00:28:43.581Z,12.97
2019-04-10T00:30:16.614Z,11.87
2019-04-10T00:31:49.187Z,12.90
2019-04-10T00:33:21.817Z,12.37
2019-04-10T00:34:56.132Z,12.63
2019-04-10T00:36:28.894Z,12.10
2019-04-10T00:38:01.751Z,11.67
2019-04-10T00:39:34.879Z,10.57
2019-04-10T00:41:08.030Z,11.30
2019-04-10T00:42:41.141Z,10.77
2019-04-10T00:44:13.787Z,11.03
2019-04-10T00:45:46.346Z,10.97
2019-04-10T00:47:19.144Z,10.90
2019-04-10T00:48:52.341Z,10.67
2019-04-10T00:50:24.874Z,10.40
2019-04-10T00:51:57.526Z,10.43
2019-04-10T00:53:30.077Z,10.30
2019-04-10T00:55:03.569Z,11.43
2019-04-10T00:56:36.848Z,9.90
2019-04-10T00:58:09.987Z,10.97
2019-04-10T00:59:42.623Z,11.50
2019-04-10T01:01:15.947Z,11.23
2019-04-10T01:02:49.160Z,10.10
2019-04-10T01:04:22.354Z,10.63
2019-04-10T01:05:55.474Z,9.63
2019-04-10T01:07:36.616Z,10.33
2019-04-10T01:09:02.042Z,10.40
2019-04-10T01:12:44.295Z,10.63
2019-04-10T01:14:35.943Z,11.40
2019-04-10T01:16:11.357Z,11.70
2019-04-10T01:17:43.950Z,10.77
2019-04-10T01:19:17.492Z,10.60
2019-04-10T01:20:50.168Z,10.87
2019-04-10T01:22:41.457Z,11.10
2019-04-10T01:24:33.358Z,9.97
2019-04-10T01:26:25.045Z,10.87
2019-04-10T01:28:00.455Z,10.70
2019-04-10T01:29:33.627Z,11.13
2019-04-10T01:31:06.775Z,11.60
2019-04-10T01:32:39.754Z,10.80
2019-04-10T01:34:13.519Z,10.90
2019-04-10T01:35:46.710Z,11.33
2019-04-10T01:37:19.300Z,10.93
2019-04-10T01:38:51.838Z,10.77
2019-04-10T01:40:24.281Z,10.77
2019-04-10T01:41:56.812Z,10.60
2019-04-10T01:43:29.309Z,12.33
2019-04-10T01:45:02.830Z,11.93
2019-04-10T01:46:36.138Z,12.10
2019-04-10T01:48:09.787Z,10.30
2019-04-10T01:49:42.640Z,11.40
2019-04-10T01:51:15.250Z,10.70
2019-04-10T01:52:47.588Z,11.90
2019-04-10T01:54:19.935Z,11.57
2019-04-10T01:55:53.407Z,11.20
2019-04-10T01:57:28.805Z,12.07
2019-04-10T01:59:01.394Z,12.47
2019-04-10T02:00:34.111Z,11.70
2019-04-10T02:02:07.208Z,11.30
2019-04-10T02:03:40.369Z,10.93
2019-04-10T02:05:12.898Z,11.47
2019-04-10T02:06:45.434Z,12.90
2019-04-10T02:08:18.932Z,12.57
2019-04-10T02:09:51.878Z,14.17
2019-04-10T02:11:24.363Z,12.97
2019-04-10T02:12:56.984Z,14.70
2019-04-10T02:14:30.021Z,13.63
2019-04-10T02:16:02.980Z,13.70
2019-04-10T02:17:35.363Z,14.77
2019-04-10T02:19:08.196Z,14.30
2019-04-10T02:20:41.037Z,15.07
2019-04-10T02:22:14.120Z,14.60
2019-04-10T02:23:46.909Z,15.07
2019-04-10T02:25:19.927Z,14.77
2019-04-10T02:26:52.501Z,14.57
2019-04-10T02:28:24.991Z,14.10
2019-04-10T02:29:57.902Z,15.17
2019-04-10T02:31:31.899Z,15.77
2019-04-10T02:33:06.041Z,14.97
2019-04-10T02:34:41.523Z,15.10
2019-04-10T02:36:14.601Z,16.03
2019-04-10T02:37:51.079Z,15.40
2019-04-10T02:39:31.458Z,17.23
2019-04-10T02:40:56.121Z,15.00
2019-04-10T02:42:30.178Z,13.83
2019-04-10T02:44:03.168Z,14.70
2019-04-10T02:45:39.803Z,14.27
2019-04-10T02:47:12.744Z,16.47
2019-04-10T02:48:45.369Z,16.63
2019-04-10T02:50:18.756Z,16.37
2019-04-10T02:51:51.978Z,16.10
2019-04-10T02:53:25.665Z,15.50
2019-04-10T02:54:59.523Z,17.07
2019-04-10T02:56:32.741Z,17.63
2019-04-10T02:58:06.007Z,17.13
2019-04-10T02:59:39.749Z,16.23
2019-04-10T03:01:13.480Z,16.63
2019-04-10T03:02:47.714Z,16.20
2019-04-10T03:04:20.684Z,15.87
2019-04-10T03:05:54.219Z,15.20
2019-04-10T03:07:28.194Z,14.73
2019-04-10T03:09:14.599Z,13.53
2019-04-10T03:10:43.251Z,16.53
2019-04-10T03:12:10.561Z,15.53
2019-04-10T03:13:45.011Z,16.60
2019-04-10T03:15:19.359Z,15.53
2019-04-10T03:16:51.572Z,15.77
2019-04-10T03:18:25.037Z,17.03
2019-04-10T03:19:58.096Z,16.23
2019-04-10T03:21:31.325Z,15.57
2019-04-10T03:23:03.812Z,16.83
2019-04-10T03:24:36.267Z,15.60
2019-04-10T03:26:09.654Z,15.17
2019-04-10T03:27:42.746Z,15.17
2019-04-10T03:29:15.706Z,14.47
2019-04-10T03:30:49.599Z,14.97
2019-04-10T03:32:23.638Z,15.03
2019-04-10T03:33:56.251Z,15.90
2019-04-10T03:35:28.774Z,15.00
2019-04-10T03:37:01.808Z,14.93
2019-04-10T03:38:47.361Z,15.13
2019-04-10T03:40:09.314Z,14.37
2019-04-10T03:41:42.166Z,13.73
2019-04-10T03:43:14.909Z,14.87
2019-04-10T03:44:47.391Z,14.10
2019-04-10T03:46:19.745Z,14.63
2019-04-10T03:47:52.246Z,15.40
2019-04-10T03:49:25.519Z,14.47
2019-04-10T03:50:58.712Z,14.10
2019-04-10T03:52:31.513Z,15.73
2019-04-10T03:54:04.787Z,14.23
2019-04-10T03:55:37.312Z,13.80
2019-04-10T03:57:10.112Z,13.43
2019-04-10T03:58:42.588Z,15.30
2019-04-10T04:00:16.117Z,13.33
2019-04-10T04:01:49.282Z,13.47
2019-04-10T04:03:21.828Z,12.87
2019-04-10T04:04:54.441Z,12.47
2019-04-10T04:06:27.883Z,13.67
2019-04-10T04:08:01.311Z,13.40
2019-04-10T04:09:33.934Z,11.93
2019-04-10T04:11:07.195Z,13.73
2019-04-10T04:12:39.929Z,12.03
2019-04-10T04:14:12.532Z,12.33
2019-04-10T04:15:46.275Z,12.60
2019-04-10T04:17:19.989Z,12.47
2019-04-10T04:18:53.376Z,11.77
2019-04-10T04:20:26.595Z,12.20
2019-04-10T04:21:59.296Z,11.33
2019-04-10T04:23:31.944Z,11.90
2019-04-10T04:25:04.601Z,12.10
2019-04-10T04:26:37.219Z,11.17
2019-04-10T04:28:09.639Z,11.27
2019-04-10T04:29:42.118Z,11.17
2019-04-10T04:31:15.948Z,10.40
2019-04-10T04:32:48.500Z,10.20
2019-04-10T04:34:21.008Z,11.30
2019-04-10T04:35:53.435Z,10.40
2019-04-10T04:37:26.003Z,10.77
2019-04-10T04:38:58.506Z,9.10
2019-04-10T04:40:31.006Z,10.23
2019-04-10T04:42:03.469Z,10.73
2019-04-10T04:43:37.016Z,10.17
2019-04-10T04:45:10.682Z,10.80
2019-04-10T04:46:43.262Z,10.90
2019-04-10T04:48:16.902Z,10.13
2019-04-10T04:49:50.261Z,11.37
2019-04-10T04:51:22.813Z,11.43
2019-04-10T04:52:55.308Z,10.77
2019-04-10T04:54:28.827Z,10.70
2019-04-10T04:56:01.851Z,10.47
2019-04-10T04:57:36.501Z,9.97
2019-04-10T04:59:08.469Z,10.43
2019-04-10T05:00:41.757Z,11.07
2019-04-10T05:02:14.631Z,10.27
2019-04-10T05:03:47.099Z,9.53
2019-04-10T05:05:19.653Z,10.73
2019-04-10T05:06:52.200Z,13.97
2019-04-10T05:08:24.709Z,21.13
2019-04-10T05:10:00.168Z,19.70
2019-04-10T05:11:32.676Z,22.20
2019-04-10T05:13:06.725Z,23.03
2019-04-10T05:14:39.886Z,25.47
2019-04-10T05:16:12.694Z,29.13
2019-04-10T05:17:45.308Z,31.90
2019-04-10T05:19:18.906Z,30.30
2019-04-10T05:20:52.404Z,29.70
2019-04-10T05:22:25.232Z,32.30
2019-04-10T05:23:57.762Z,32.23
2019-04-10T05:25:30.331Z,31.30
2019-04-10T05:27:05.732Z,30.00
2019-04-10T05:28:38.291Z,29.50
2019-04-10T05:30:10.845Z,32.40
2019-04-10T05:31:43.415Z,32.07
2019-04-10T05:33:16.273Z,33.93
2019-04-10T05:34:48.870Z,30.17
2019-04-10T05:36:21.632Z,30.73
2019-04-10T05:37:54.416Z,31.00
2019-04-10T05:39:39.085Z,32.40
2019-04-10T05:41:01.426Z,30.37
2019-04-10T05:42:35.201Z,31.60
2019-04-10T05:44:08.036Z,30.13
2019-04-10T05:45:40.531Z,29.53
2019-04-10T05:47:13.660Z,30.97
2019-04-10T05:48:46.293Z,31.60
2019-04-10T05:50:19.403Z,30.53
2019-04-10T05:51:52.075Z,30.20
2019-04-10T05:53:24.726Z,31.93
2019-04-10T05:54:57.806Z,30.30
2019-04-10T05:56:30.365Z,29.40
2019-04-10T05:58:03.007Z,30.93
2019-04-10T05:59:36.228Z,31.00
2019-04-10T06:01:09.510Z,30.27
2019-04-10T06:02:42.405Z,31.23
2019-04-10T06:04:15.066Z,31.30
2019-04-10T06:05:50.711Z,31.60
2019-04-10T06:07:29.923Z,31.03
2019-04-10T06:09:04.486Z,29.70
2019-04-10T06:10:43.655Z,32.67
2019-04-10T06:12:36.108Z,30.60
2019-04-10T06:14:28.181Z,31.00
2019-04-10T06:16:19.506Z,28.63
2019-04-10T06:17:59.671Z,29.73
2019-04-10T06:19:35.010Z,29.40
2019-04-10T06:21:07.545Z,30.53
2019-04-10T06:22:40.929Z,31.60
2019-04-10T06:24:14.193Z,33.43
2019-04-10T06:25:47.748Z,31.53
2019-04-10T06:27:20.555Z,30.13
2019-04-10T06:28:53.101Z,31.17
2019-04-10T06:30:27.968Z,34.03
2019-04-10T06:32:03.193Z,32.37
2019-04-10T06:33:44.389Z,32.57
2019-04-10T06:35:17.832Z,32.37
2019-04-10T06:36:51.555Z,31.87
2019-04-10T06:38:26.583Z,32.30
2019-04-10T06:40:07.682Z,31.33
2019-04-10T06:41:32.771Z,33.33
2019-04-10T06:43:10.091Z,32.20
2019-04-10T06:44:42.731Z,32.77
2019-04-10T06:46:16.491Z,33.23
2019-04-10T06:47:49.390Z,31.87
2019-04-10T06:49:29.255Z,33.00
2019-04-10T06:51:02.104Z,34.07
2019-04-10T06:52:45.279Z,30.85
2019-04-10T06:54:18.492Z,33.57
2019-04-10T06:55:51.044Z,31.07
2019-04-10T06:57:25.018Z,29.93
2019-04-10T06:58:58.337Z,30.43
2019-04-10T07:00:34.814Z,30.37
2019-04-10T07:02:22.031Z,31.13
2019-04-10T07:03:52.708Z,34.47
2019-04-10T07:05:16.466Z,33.47
2019-04-10T07:06:57.983Z,33.03
2019-04-10T07:08:27.425Z,32.83
2019-04-10T07:10:00.193Z,30.40
2019-04-10T07:11:37.270Z,34.00
2019-04-10T07:13:13.394Z,33.03
2019-04-10T07:14:50.781Z,32.43
2019-04-10T07:16:26.623Z,32.10
2019-04-10T07:17:57.222Z,31.67
2019-04-10T07:19:30.293Z,32.73
2019-04-10T07:21:02.902Z,31.83
2019-04-10T07:22:36.545Z,31.67
2019-04-10T07:24:11.006Z,31.33
2019-04-10T07:25:45.397Z,33.43
2019-04-10T07:27:23.688Z,30.57
2019-04-10T07:28:59.066Z,29.87
2019-04-10T07:30:31.866Z,29.90
2019-04-10T07:32:07.864Z,30.60
2019-04-10T07:33:38.988Z,29.90
2019-04-10T07:35:21.870Z,30.40
2019-04-10T07:37:10.775Z,29.47
2019-04-10T07:38:39.316Z,30.27
2019-04-10T07:40:33.027Z,31.87
2019-04-10T07:42:25.302Z,28.60
2019-04-10T07:43:52.434Z,30.07
2019-04-10T07:45:20.918Z,30.13
2019-04-10T07:46:53.489Z,32.90
2019-04-10T07:48:38.775Z,29.30
2019-04-10T07:50:12.206Z,30.87
2019-04-10T07:51:49.205Z,29.30
2019-04-10T07:53:26.877Z,30.20
2019-04-10T07:54:58.965Z,31.00
2019-04-10T07:56:35.287Z,32.27
2019-04-10T07:58:08.961Z,30.83
2019-04-10T07:59:41.611Z,31.87
2019-04-10T08:01:18.275Z,31.23
2019-04-10T08:02:51.128Z,32.47
2019-04-10T08:04:26.863Z,30.63
2019-04-10T08:06:00.409Z,30.27
2019-04-10T08:08:29.804Z,31.43
2019-04-10T08:09:20.995Z,30.20
2019-04-10T08:10:57.425Z,31.40
2019-04-10T08:19:36.974Z,30.50
2019-04-10T08:21:11.857Z,31.77
2019-04-10T08:22:44.878Z,34.53
2019-04-10T08:24:18.136Z,31.93
2019-04-10T08:26:09.200Z,30.90
2019-04-10T08:27:52.662Z,30.67
2019-04-10T08:29:28.159Z,31.90
2019-04-10T08:31:01.018Z,31.30
2019-04-10T08:32:47.495Z,31.77
2019-04-10T08:34:11.609Z,30.83
2019-04-10T08:35:45.348Z,31.07
2019-04-10T08:37:18.850Z,31.70
2019-04-10T08:38:51.506Z,31.20
2019-04-10T08:40:24.077Z,33.57
2019-04-10T08:41:56.640Z,32.40
2019-04-10T08:43:29.593Z,31.40
2019-04-10T08:45:03.517Z,31.67
2019-04-10T08:46:36.134Z,34.20
2019-04-10T08:48:08.611Z,31.80
2019-04-10T08:49:41.206Z,31.37
2019-04-10T08:51:14.722Z,31.57
2019-04-10T08:52:48.602Z,31.60
2019-04-10T08:54:21.664Z,34.57
2019-04-10T08:55:54.585Z,30.43
2019-04-10T08:57:27.738Z,33.17
2019-04-10T08:59:00.411Z,32.47
2019-04-10T09:00:32.871Z,31.57
2019-04-10T09:02:06.085Z,34.13
2019-04-10T09:03:39.287Z,32.37
2019-04-10T09:05:14.989Z,33.20
2019-04-10T09:06:49.500Z,31.43
2019-04-10T09:08:22.144Z,34.20
2019-04-10T09:09:54.697Z,34.00
2019-04-10T09:11:29.787Z,33.13
2019-04-10T09:13:01.363Z,32.40
2019-04-10T09:14:34.953Z,32.10
2019-04-10T09:16:10.004Z,33.37
2019-04-10T09:17:43.713Z,32.80
2019-04-10T09:19:20.375Z,33.13
2019-04-10T09:20:57.197Z,32.07
2019-04-10T09:22:41.874Z,32.53
2019-04-10T09:24:04.706Z,33.73
2019-04-10T09:25:41.481Z,35.27
2019-04-10T09:27:12.955Z,34.50
2019-04-10T09:28:46.633Z,35.17
2019-04-10T09:30:19.171Z,34.67
2019-04-10T09:34:03.314Z,33.27
2019-04-10T09:35:57.178Z,32.63
2019-04-10T09:37:50.360Z,34.37
2019-04-10T09:41:17.565Z,33.90
2019-04-10T09:42:52.147Z,33.27
2019-04-10T09:44:44.334Z,33.83
2019-04-10T09:46:40.833Z,33.37
2019-04-10T09:48:37.952Z,34.50
2019-04-10T09:50:15.829Z,34.07
2019-04-10T09:51:51.912Z,35.27
2019-04-10T09:55:16.126Z,33.60
2019-04-10T09:56:48.877Z,34.37
2019-04-10T09:58:21.898Z,35.43
2019-04-10T10:00:15.345Z,33.07
2019-04-10T10:02:07.091Z,32.77
2019-04-10T10:05:34.920Z,31.83
2019-04-10T10:07:14.365Z,35.50
2019-04-10T10:09:06.193Z,36.57
2019-04-10T10:10:57.621Z,33.50
2019-04-10T10:12:34.268Z,33.73
2019-04-10T10:14:06.884Z,35.37
2019-04-10T10:15:45.195Z,33.50
2019-04-10T10:17:25.503Z,36.33
2019-04-10T10:18:58.159Z,35.00
2019-04-10T10:20:30.773Z,34.77
2019-04-10T10:22:23.106Z,33.20
2019-04-10T10:24:12.484Z,33.17
2019-04-10T10:25:45.712Z,35.60
2019-04-10T10:27:18.354Z,35.73
2019-04-10T10:28:58.571Z,34.17
2019-04-10T10:30:25.776Z,37.07
2019-04-10T10:31:58.450Z,35.63
2019-04-10T10:33:31.955Z,35.77
2019-04-10T10:35:05.020Z,36.70
2019-04-10T10:36:42.000Z,36.93
2019-04-10T10:38:13.027Z,35.73
2019-04-10T10:39:45.676Z,37.17
2019-04-10T10:41:18.576Z,35.37
2019-04-10T10:42:53.931Z,34.97
2019-04-10T10:44:26.568Z,38.27
2019-04-10T10:46:11.456Z,38.03
2019-04-10T10:47:38.309Z,37.27
2019-04-10T10:49:11.020Z,36.37
2019-04-10T10:50:43.646Z,37.73
2019-04-10T10:52:21.552Z,36.40
2019-04-10T10:53:56.697Z,40.33
2019-04-10T10:55:31.860Z,37.63
2019-04-10T10:57:04.458Z,37.30
2019-04-10T10:58:50.764Z,36.17
2019-04-10T11:00:34.134Z,37.37
2019-04-10T11:02:08.569Z,37.17
2019-04-10T11:03:43.049Z,37.20
2019-04-10T11:05:23.208Z,37.83
2019-04-10T11:07:01.182Z,36.40
2019-04-10T11:08:35.822Z,38.67
2019-04-10T11:10:08.618Z,37.17
2019-04-10T11:11:45.241Z,36.47
2019-04-10T11:13:24.223Z,38.73
2019-04-10T11:14:57.096Z,38.60
2019-04-10T11:16:29.747Z,38.90
2019-04-10T11:18:04.726Z,37.67
2019-04-10T11:19:37.719Z,39.00
2019-04-10T11:21:12.378Z,39.13
2019-04-10T11:22:49.507Z,37.67
2019-04-10T11:24:25.387Z,39.77
2019-04-10T11:26:04.797Z,38.70
2019-04-10T11:27:39.350Z,39.97
2019-04-10T11:29:14.363Z,37.57
2019-04-10T11:30:47.471Z,38.37
2019-04-10T11:32:28.934Z,38.67
2019-04-10T11:34:11.285Z,40.13
2019-04-10T11:35:47.579Z,40.00
2019-04-10T11:37:35.013Z,39.07
2019-04-10T11:40:57.389Z,40.03
2019-04-10T11:42:39.646Z,38.23
2019-04-10T11:44:14.330Z,39.60
2019-04-10T11:45:52.471Z,38.33
2019-04-10T11:47:24.551Z,39.10
2019-04-10T11:49:02.545Z,38.77
2019-04-10T11:50:38.621Z,36.83
2019-04-10T11:52:14.586Z,40.60
2019-04-10T11:53:54.364Z,38.93
2019-04-10T11:55:27.838Z,40.37
2019-04-10T11:57:06.696Z,39.07
2019-04-10T11:58:48.670Z,38.93
2019-04-10T12:00:23.706Z,40.20
2019-04-10T12:02:02.606Z,37.77
2019-04-10T12:03:31.468Z,40.63
2019-04-10T12:05:11.018Z,38.90
2019-04-10T12:07:01.949Z,38.00
2019-04-10T12:09:13.265Z,38.23
2019-04-10T12:12:01.495Z,38.63
2019-04-10T12:13:34.509Z,38.73
2019-04-10T12:15:08.023Z,37.77
2019-04-10T12:16:43.208Z,37.70
2019-04-10T12:18:14.868Z,37.47
2019-04-10T12:19:47.424Z,36.57
2019-04-10T12:21:20.013Z,36.80
2019-04-10T12:22:52.705Z,36.87
2019-04-10T12:24:25.992Z,36.50
2019-04-10T12:25:59.043Z,36.90
2019-04-10T12:27:33.431Z,35.47
2019-04-10T12:29:06.665Z,34.20
2019-04-10T12:30:39.546Z,34.33
2019-04-10T12:32:12.429Z,36.07
2019-04-10T12:33:44.984Z,37.00
2019-04-10T12:35:17.538Z,35.17
2019-04-10T12:36:51.842Z,36.77
2019-04-10T12:38:24.336Z,37.17
2019-04-10T12:39:57.222Z,35.53
2019-04-10T12:41:29.783Z,35.40
2019-04-10T12:43:02.942Z,37.03
2019-04-10T12:44:35.977Z,36.43
2019-04-10T12:46:08.701Z,36.20
2019-04-10T12:47:41.928Z,35.03
2019-04-10T12:49:15.062Z,35.83
2019-04-10T12:50:47.600Z,35.33
2019-04-10T12:52:20.660Z,35.17
2019-04-10T12:53:54.039Z,34.37
2019-04-10T12:55:26.606Z,33.30
2019-04-10T12:56:59.181Z,34.90
2019-04-10T12:58:32.903Z,34.13
2019-04-10T13:00:06.679Z,35.90
2019-04-10T13:01:40.673Z,34.97
2019-04-10T13:03:14.524Z,34.10
2019-04-10T13:04:47.158Z,37.37
2019-04-10T13:06:20.074Z,35.60
2019-04-10T13:07:52.629Z,37.37
2019-04-10T13:09:26.159Z,34.27
2019-04-10T13:10:58.822Z,34.77
2019-04-10T13:12:31.377Z,34.93
2019-04-10T13:14:03.999Z,36.87
2019-04-10T13:15:37.219Z,36.97
2019-04-10T13:17:09.964Z,37.00
2019-04-10T13:18:42.784Z,37.27
2019-04-10T13:20:15.652Z,37.37
2019-04-10T13:21:48.329Z,38.17
2019-04-10T13:23:20.888Z,39.30
2019-04-10T13:24:54.143Z,38.20
2019-04-10T13:26:26.686Z,39.70
2019-04-10T13:27:59.269Z,37.83
2019-04-10T13:29:32.258Z,38.67
2019-04-10T13:31:05.460Z,37.77
2019-04-10T13:32:38.138Z,36.63
2019-04-10T13:34:11.172Z,36.10
2019-04-10T13:35:43.944Z,35.60
2019-04-10T13:37:16.486Z,37.57
2019-04-10T13:38:49.166Z,36.80
2019-04-10T13:40:21.756Z,35.77
2019-04-10T13:41:54.714Z,36.70
2019-04-10T13:43:27.686Z,36.90
2019-04-10T13:45:00.485Z,38.67
2019-04-10T13:46:33.959Z,38.30
2019-04-10T13:48:08.137Z,38.67
2019-04-10T13:49:42.002Z,35.33
2019-04-10T13:51:15.040Z,35.43
2019-04-10T13:52:50.735Z,37.60
2019-04-10T13:54:22.818Z,36.40
2019-04-10T13:55:56.883Z,37.93
2019-04-10T13:57:30.717Z,36.00
2019-04-10T13:59:03.259Z,36.97
2019-04-10T14:00:38.379Z,36.57
2019-04-10T14:02:10.288Z,37.47
2019-04-10T14:03:44.236Z,35.67
2019-04-10T14:05:17.882Z,37.30
2019-04-10T14:06:51.453Z,38.50
2019-04-10T14:08:40.628Z,37.93
2019-04-10T14:10:00.718Z,36.87
2019-04-10T14:11:33.395Z,36.60
2019-04-10T14:13:05.926Z,36.50
2019-04-10T14:14:38.282Z,37.33
2019-04-10T14:16:10.769Z,37.87
2019-04-10T14:17:43.891Z,38.27
2019-04-10T14:19:17.236Z,37.93
2019-04-10T14:20:49.827Z,37.73
2019-04-10T14:22:22.255Z,39.20
2019-04-10T14:23:55.602Z,37.57
2019-04-10T14:25:28.148Z,38.70
2019-04-10T14:27:00.571Z,38.10
2019-04-10T14:28:33.349Z,36.30
2019-04-10T14:30:07.033Z,37.13
2019-04-10T14:31:40.516Z,38.03
2019-04-10T14:33:13.133Z,38.27
2019-04-10T14:34:45.621Z,36.40
2019-04-10T14:36:18.100Z,37.57
2019-04-10T14:37:50.480Z,38.57
2019-04-10T14:39:23.000Z,39.47
2019-04-10T14:40:55.584Z,39.97
2019-04-10T14:42:28.519Z,37.43
2019-04-10T14:44:01.873Z,39.87
2019-04-10T14:45:35.452Z,38.67
2019-04-10T14:47:08.579Z,38.63
2019-04-10T14:48:41.063Z,37.70
2019-04-10T14:50:13.723Z,39.87
2019-04-10T14:51:48.529Z,37.17
2019-04-10T14:53:25.023Z,38.47
2019-04-10T14:54:57.920Z,37.40
2019-04-10T14:56:30.495Z,40.67
2019-04-10T14:58:03.429Z,37.67
2019-04-10T14:59:35.968Z,40.83
2019-04-10T15:01:08.966Z,39.00
2019-04-10T15:02:43.051Z,38.40
2019-04-10T15:04:15.694Z,37.00
2019-04-10T15:05:51.473Z,38.97
2019-04-10T15:07:22.237Z,40.10
2019-04-10T15:08:55.610Z,38.73
2019-04-10T15:10:28.087Z,37.60
2019-04-10T15:12:00.875Z,37.87
2019-04-10T15:13:33.920Z,40.60
2019-04-10T15:15:06.434Z,37.57
2019-04-10T15:16:39.121Z,38.97
2019-04-10T15:18:11.566Z,37.47
2019-04-10T15:19:44.779Z,38.77
2019-04-10T15:21:17.341Z,38.33
2019-04-10T15:22:49.837Z,38.07
2019-04-10T15:24:22.194Z,38.17
2019-04-10T15:25:55.483Z,39.27
2019-04-10T15:27:29.166Z,39.60
2019-04-10T15:29:01.666Z,39.07
2019-04-10T15:30:34.742Z,38.87
2019-04-10T15:32:08.364Z,39.83
2019-04-10T15:33:41.076Z,39.93
2019-04-10T15:35:13.620Z,39.57
2019-04-10T15:36:47.636Z,38.87
2019-04-10T15:38:20.195Z,39.33
2019-04-10T15:39:53.822Z,38.25
2019-04-10T15:41:27.339Z,40.60
2019-04-10T15:43:00.719Z,40.90
2019-04-10T15:44:34.297Z,40.27
2019-04-10T15:46:06.886Z,41.83
2019-04-10T15:47:49.195Z,40.83
2019-04-10T15:49:13.374Z,40.17
2019-04-10T15:50:47.541Z,40.13
2019-04-10T15:52:20.063Z,42.57
2019-04-10T15:53:53.491Z,41.43
2019-04-10T15:55:26.015Z,40.53
2019-04-10T15:56:58.658Z,41.60
2019-04-10T15:58:31.235Z,40.17
2019-04-10T16:00:03.710Z,39.63
2019-04-10T16:01:37.140Z,39.17
2019-04-10T16:03:09.735Z,39.23
2019-04-10T16:04:42.369Z,37.73
2019-04-10T16:06:15.367Z,41.20
2019-04-10T16:07:48.918Z,41.03
2019-04-10T16:09:21.398Z,40.43
2019-04-10T16:10:53.750Z,41.00
2019-04-10T16:12:26.968Z,41.83
2019-04-10T16:14:01.018Z,40.37
2019-04-10T16:15:34.552Z,42.23
2019-04-10T16:17:07.031Z,40.00
2019-04-10T16:18:39.396Z,38.80
2019-04-10T16:20:11.825Z,40.53
2019-04-10T16:21:44.330Z,40.80
2019-04-10T16:23:20.274Z,40.63
2019-04-10T16:24:53.363Z,40.63
2019-04-10T16:26:25.803Z,41.30
2019-04-10T16:27:58.220Z,38.90
2019-04-10T16:29:30.655Z,39.83
2019-04-10T16:31:03.388Z,41.13
2019-04-10T16:32:36.937Z,42.60
2019-04-10T16:34:09.497Z,39.97
2019-04-10T16:35:42.002Z,41.67
2019-04-10T16:37:14.791Z,42.37
2019-04-10T16:38:47.222Z,41.80
2019-04-10T16:40:20.677Z,42.83
2019-04-10T16:41:54.433Z,41.50
2019-04-10T16:43:26.913Z,43.03
2019-04-10T16:44:59.737Z,40.87
2019-04-10T16:46:32.238Z,43.17
2019-04-10T16:48:04.670Z,41.37
2019-04-10T16:49:37.239Z,40.80
2019-04-10T16:51:10.077Z,43.70
2019-04-10T16:52:42.562Z,44.20
2019-04-10T16:54:17.625Z,44.37
2019-04-10T16:55:49.415Z,44.07
2019-04-10T16:57:22.658Z,43.07
2019-04-10T16:58:56.326Z,41.80
2019-04-10T17:00:29.177Z,42.87
2019-04-10T17:02:01.834Z,42.97
2019-04-10T17:03:34.398Z,45.47
2019-04-10T17:05:08.075Z,44.23
2019-04-10T17:06:40.647Z,42.20
2019-04-10T17:08:14.062Z,42.83
2019-04-10T17:09:47.260Z,43.93
2019-04-10T17:11:20.905Z,45.57
2019-04-10T17:12:53.931Z,47.03
2019-04-10T17:14:27.152Z,44.43
2019-04-10T17:15:59.697Z,43.00
2019-04-10T17:17:32.564Z,44.43
2019-04-10T17:19:05.726Z,44.13
2019-04-10T17:20:38.341Z,43.90
2019-04-10T17:22:11.086Z,44.97
2019-04-10T17:23:44.789Z,46.67
2019-04-10T17:25:18.051Z,44.20
2019-04-10T17:26:50.998Z,45.13
2019-04-10T17:28:24.941Z,45.67
2019-04-10T17:29:58.402Z,45.33
2019-04-10T17:31:32.821Z,44.80
2019-04-10T17:33:06.756Z,49.40
2019-04-10T17:34:39.581Z,48.17
2019-04-10T17:36:13.435Z,46.87
2019-04-10T17:37:45.857Z,44.37
2019-04-10T17:39:19.627Z,43.80
2019-04-10T17:40:56.521Z,45.23
2019-04-10T17:42:26.282Z,39.87
2019-04-10T17:44:00.648Z,44.27
2019-04-10T17:45:36.416Z,45.53
2019-04-10T17:47:09.981Z,42.43
2019-04-10T17:48:42.562Z,43.33
2019-04-10T17:50:16.127Z,46.53
2019-04-10T17:51:48.703Z,45.43
2019-04-10T17:53:21.228Z,45.30
2019-04-10T17:54:53.879Z,46.80
2019-04-10T17:56:26.384Z,47.73
2019-04-10T17:57:58.780Z,47.23
2019-04-10T17:59:32.330Z,45.50
2019-04-10T18:01:04.851Z,47.60
2019-04-10T18:02:37.279Z,48.03
2019-04-10T18:04:09.695Z,46.93
2019-04-10T18:05:42.658Z,45.60
2019-04-10T18:07:16.199Z,45.17
2019-04-10T18:08:49.343Z,46.33
2019-04-10T18:10:22.574Z,48.43
2019-04-10T18:11:55.041Z,46.43
2019-04-10T18:13:28.649Z,45.90
2019-04-10T18:15:02.055Z,46.00
2019-04-10T18:16:38.050Z,45.27
2019-04-10T18:18:11.550Z,46.90
2019-04-10T18:19:44.339Z,45.90
2019-04-10T18:21:16.988Z,47.73
2019-04-10T18:22:49.477Z,43.90
2019-04-10T18:24:24.154Z,43.23
2019-04-10T18:25:58.218Z,45.63
2019-04-10T18:27:32.327Z,45.77
2019-04-10T18:29:05.964Z,46.03
2019-04-10T18:30:38.657Z,45.27
2019-04-10T18:32:11.758Z,47.87
2019-04-10T18:33:44.742Z,45.17
2019-04-10T18:35:18.375Z,44.00
2019-04-10T18:36:51.101Z,45.90
2019-04-10T18:38:23.899Z,44.77
2019-04-10T18:39:57.024Z,41.97
2019-04-10T18:41:30.022Z,42.50
2019-04-10T18:43:02.643Z,43.70
2019-04-10T18:44:35.238Z,45.27
2019-04-10T18:46:12.729Z,42.93
2019-04-10T18:47:41.869Z,45.77
2019-04-10T18:49:14.283Z,46.97
2019-04-10T18:50:47.494Z,42.83
2019-04-10T18:52:19.998Z,44.50
2019-04-10T18:53:53.356Z,43.47
2019-04-10T18:55:25.855Z,44.63
2019-04-10T18:56:58.334Z,46.63
2019-04-10T18:58:31.698Z,45.93
2019-04-10T19:00:04.319Z,43.53
2019-04-10T19:01:37.065Z,44.73
2019-04-10T19:03:09.691Z,44.80
2019-04-10T19:04:43.264Z,44.50
2019-04-10T19:06:16.355Z,45.67
2019-04-10T19:07:54.949Z,44.43
2019-04-10T19:09:30.412Z,43.63
2019-04-10T19:11:16.907Z,45.00
2019-04-10T19:12:37.471Z,46.73
2019-04-10T19:14:09.979Z,45.47
2019-04-10T19:15:42.501Z,45.53
2019-04-10T19:17:15.016Z,46.20
2019-04-10T19:18:47.994Z,48.50
2019-04-10T19:20:20.496Z,44.87
2019-04-10T19:21:53.762Z,45.37
2019-04-10T19:23:29.122Z,48.10
2019-04-10T19:25:02.956Z,45.20
2019-04-10T19:26:35.743Z,46.43
2019-04-10T19:28:08.643Z,46.67
2019-04-10T19:29:42.348Z,45.27
2019-04-10T19:31:19.398Z,44.47
2019-04-10T19:32:49.911Z,44.87
2019-04-10T19:34:23.457Z,44.90
2019-04-10T19:35:56.146Z,44.53
2019-04-10T19:37:28.720Z,43.60
2019-04-10T19:39:02.109Z,44.63
2019-04-10T19:40:36.942Z,44.23
2019-04-10T19:42:09.099Z,45.33
2019-04-10T19:43:42.227Z,44.43
2019-04-10T19:45:15.302Z,47.50
2019-04-10T19:46:48.104Z,46.50
2019-04-10T19:48:21.305Z,43.57
2019-04-10T19:49:55.032Z,44.70
2019-04-10T19:51:27.535Z,47.10
2019-04-10T19:53:00.539Z,44.23
2019-04-10T19:54:33.265Z,44.90
2019-04-10T19:56:06.518Z,44.53
2019-04-10T19:57:39.552Z,46.13
2019-04-10T19:59:12.145Z,43.37
2019-04-10T20:00:44.569Z,44.13
2019-04-10T20:02:17.080Z,44.00
2019-04-10T20:03:50.045Z,45.20
2019-04-10T20:05:31.627Z,45.27
2019-04-10T20:07:06.849Z,44.70
2019-04-10T20:08:40.343Z,47.60
2019-04-10T20:10:13.305Z,45.17
2019-04-10T20:11:52.547Z,43.97
2019-04-10T20:13:26.840Z,41.93
2019-04-10T20:15:02.347Z,42.83
2019-04-10T20:19:03.362Z,45.13
2019-04-10T20:24:32.614Z,45.07
2019-04-10T20:26:10.434Z,44.50
